sensor_id;sensor_type;location;lat;lon;timestamp;pressure;altitude;pressure_sealevel;temperature;humidity
54308;BME280;40208;39.778;2.710;2023-02-23T00:02:16;101339.25;;;10.98;100.00
54308;BME280;40208;39.778;2.710;2023-02-23T00:05:01;101335.75;;;10.98;100.00
54308;BME280;40208;39.778;2.710;2023-02-23T00:07:46;101339.34;;;10.97;100.00
54308;BME280;40208;39.778;2.710;2023-02-23T00:10:31;101332.56;;;10.88;100.00
54308;BME280;40208;39.778;2.710;2023-02-23T00:13:16;101333.72;;;10.81;100.00
54308;BME280;40208;39.778;2.710;2023-02-23T00:16:09;101319.38;;;10.63;100.00
54308;BME280;40208;39.778;2.710;2023-02-23T00:18:56;101316.22;;;10.52;100.00
54308;BME280;40208;39.778;2.710;2023-02-23T00:21:43;101328.97;;;10.42;100.00
54308;BME280;40208;39.778;2.710;2023-02-23T00:24:28;101317.03;;;10.29;100.00
54308;BME280;40208;39.778;2.710;2023-02-23T00:27:14;101325.09;;;10.26;100.00
54308;BME280;40208;39.778;2.710;2023-02-23T00:30:03;101330.72;;;10.16;100.00
54308;BME280;40208;39.778;2.710;2023-02-23T00:32:49;101329.06;;;10.12;100.00
54308;BME280;40208;39.778;2.710;2023-02-23T00:35:33;101332.19;;;9.98;100.00
54308;BME280;40208;39.778;2.710;2023-02-23T00:38:19;101336.75;;;9.95;100.00
54308;BME280;40208;39.778;2.710;2023-02-23T00:41:11;101335.88;;;9.94;100.00
54308;BME280;40208;39.778;2.710;2023-02-23T00:43:57;101334.91;;;9.97;100.00
54308;BME280;40208;39.778;2.710;2023-02-23T00:46:42;101337.66;;;9.94;100.00
54308;BME280;40208;39.778;2.710;2023-02-23T00:49:28;101334.22;;;9.92;100.00
54308;BME280;40208;39.778;2.710;2023-02-23T00:52:12;101329.69;;;9.94;100.00
54308;BME280;40208;39.778;2.710;2023-02-23T00:54:58;101313.72;;;9.97;100.00
54308;BME280;40208;39.778;2.710;2023-02-23T00:57:42;101316.09;;;10.05;100.00
54308;BME280;40208;39.778;2.710;2023-02-23T01:00:27;101310.63;;;10.09;100.00
54308;BME280;40208;39.778;2.710;2023-02-23T01:03:12;101297.47;;;10.06;100.00
54308;BME280;40208;39.778;2.710;2023-02-23T01:06:01;101293.78;;;10.10;100.00
54308;BME280;40208;39.778;2.710;2023-02-23T01:08:49;101293.69;;;10.13;100.00
54308;BME280;40208;39.778;2.710;2023-02-23T01:11:35;101285.34;;;10.24;100.00
54308;BME280;40208;39.778;2.710;2023-02-23T01:14:20;101279.63;;;10.11;100.00
54308;BME280;40208;39.778;2.710;2023-02-23T01:17:05;101271.59;;;10.13;100.00
54308;BME280;40208;39.778;2.710;2023-02-23T01:19:50;101269.28;;;10.04;100.00
54308;BME280;40208;39.778;2.710;2023-02-23T01:22:35;101260.00;;;9.90;100.00
54308;BME280;40208;39.778;2.710;2023-02-23T01:25:20;101258.06;;;9.95;100.00
54308;BME280;40208;39.778;2.710;2023-02-23T01:28:04;101248.56;;;9.90;100.00
54308;BME280;40208;39.778;2.710;2023-02-23T01:30:49;101248.88;;;9.81;100.00
54308;BME280;40208;39.778;2.710;2023-02-23T01:33:33;101252.66;;;9.73;100.00
54308;BME280;40208;39.778;2.710;2023-02-23T01:36:18;101257.72;;;9.80;100.00
54308;BME280;40208;39.778;2.710;2023-02-23T01:39:04;101258.53;;;9.82;100.00
54308;BME280;40208;39.778;2.710;2023-02-23T01:41:50;101259.13;;;9.65;100.00
54308;BME280;40208;39.778;2.710;2023-02-23T01:47:23;101272.22;;;9.69;100.00
54308;BME280;40208;39.778;2.710;2023-02-23T01:50:07;101258.25;;;9.64;100.00
54308;BME280;40208;39.778;2.710;2023-02-23T01:52:55;101271.13;;;9.48;100.00
54308;BME280;40208;39.778;2.710;2023-02-23T01:55:40;101270.56;;;9.39;100.00
54308;BME280;40208;39.778;2.710;2023-02-23T01:58:25;101273.19;;;9.40;100.00
54308;BME280;40208;39.778;2.710;2023-02-23T02:01:10;101269.56;;;9.43;100.00
54308;BME280;40208;39.778;2.710;2023-02-23T02:03:56;101260.84;;;9.39;100.00
54308;BME280;40208;39.778;2.710;2023-02-23T02:06:42;101256.44;;;9.40;100.00
54308;BME280;40208;39.778;2.710;2023-02-23T02:09:28;101251.28;;;9.35;100.00
54308;BME280;40208;39.778;2.710;2023-02-23T02:12:12;101245.09;;;9.34;100.00
54308;BME280;40208;39.778;2.710;2023-02-23T02:14:58;101236.72;;;9.20;100.00
54308;BME280;40208;39.778;2.710;2023-02-23T02:26:38;101222.44;;;9.26;100.00
54308;BME280;40208;39.778;2.710;2023-02-23T02:41:17;101199.44;;;9.53;100.00
54308;BME280;40208;39.778;2.710;2023-02-23T02:44:18;101200.56;;;9.46;100.00
54308;BME280;40208;39.778;2.710;2023-02-23T02:47:05;101203.75;;;9.30;100.00
54308;BME280;40208;39.778;2.710;2023-02-23T02:53:09;101190.28;;;9.10;100.00
54308;BME280;40208;39.778;2.710;2023-02-23T02:55:54;101191.91;;;9.14;100.00
54308;BME280;40208;39.778;2.710;2023-02-23T02:58:42;101200.91;;;9.08;100.00
54308;BME280;40208;39.778;2.710;2023-02-23T03:01:27;101196.00;;;8.96;100.00
54308;BME280;40208;39.778;2.710;2023-02-23T03:04:31;101188.31;;;8.88;100.00
54308;BME280;40208;39.778;2.710;2023-02-23T03:11:00;101188.50;;;8.82;100.00
54308;BME280;40208;39.778;2.710;2023-02-23T03:14:16;101183.78;;;8.92;100.00
54308;BME280;40208;39.778;2.710;2023-02-23T03:17:32;101187.75;;;8.79;100.00
54308;BME280;40208;39.778;2.710;2023-02-23T03:20:42;101185.84;;;8.82;100.00
54308;BME280;40208;39.778;2.710;2023-02-23T03:27:06;101173.56;;;8.81;100.00
54308;BME280;40208;39.778;2.710;2023-02-23T03:30:15;101175.56;;;8.73;100.00
54308;BME280;40208;39.778;2.710;2023-02-23T03:33:39;101169.63;;;8.66;100.00
54308;BME280;40208;39.778;2.710;2023-02-23T03:36:46;101167.94;;;8.64;100.00
54308;BME280;40208;39.778;2.710;2023-02-23T03:39:52;101163.59;;;8.61;100.00
54308;BME280;40208;39.778;2.710;2023-02-23T03:42:58;101162.56;;;8.65;100.00
54308;BME280;40208;39.778;2.710;2023-02-23T03:46:03;101155.50;;;8.66;100.00
54308;BME280;40208;39.778;2.710;2023-02-23T03:49:09;101155.81;;;8.57;100.00
54308;BME280;40208;39.778;2.710;2023-02-23T03:52:15;101150.38;;;8.61;100.00
54308;BME280;40208;39.778;2.710;2023-02-23T03:55:22;101158.63;;;8.79;100.00
54308;BME280;40208;39.778;2.710;2023-02-23T03:58:29;101150.63;;;8.80;100.00
54308;BME280;40208;39.778;2.710;2023-02-23T04:01:34;101146.50;;;8.72;100.00
54308;BME280;40208;39.778;2.710;2023-02-23T04:04:39;101146.13;;;8.84;100.00
54308;BME280;40208;39.778;2.710;2023-02-23T04:07:45;101142.66;;;8.82;100.00
54308;BME280;40208;39.778;2.710;2023-02-23T04:10:51;101144.03;;;8.65;100.00
54308;BME280;40208;39.778;2.710;2023-02-23T04:13:57;101150.31;;;8.63;100.00
54308;BME280;40208;39.778;2.710;2023-02-23T04:16:44;101141.66;;;8.58;100.00
54308;BME280;40208;39.778;2.710;2023-02-23T04:19:29;101149.75;;;8.52;100.00
54308;BME280;40208;39.778;2.710;2023-02-23T04:22:13;101152.53;;;8.47;100.00
54308;BME280;40208;39.778;2.710;2023-02-23T04:24:58;101155.16;;;8.48;100.00
54308;BME280;40208;39.778;2.710;2023-02-23T04:27:43;101151.00;;;8.40;100.00
54308;BME280;40208;39.778;2.710;2023-02-23T04:30:27;101156.69;;;8.26;100.00
54308;BME280;40208;39.778;2.710;2023-02-23T04:33:12;101146.91;;;8.28;100.00
54308;BME280;40208;39.778;2.710;2023-02-23T04:35:57;101149.28;;;8.37;100.00
54308;BME280;40208;39.778;2.710;2023-02-23T04:38:42;101140.84;;;8.26;100.00
54308;BME280;40208;39.778;2.710;2023-02-23T04:41:27;101139.53;;;8.39;100.00
54308;BME280;40208;39.778;2.710;2023-02-23T04:44:12;101137.84;;;8.37;100.00
54308;BME280;40208;39.778;2.710;2023-02-23T04:46:56;101137.75;;;8.41;100.00
54308;BME280;40208;39.778;2.710;2023-02-23T04:49:41;101136.94;;;8.38;100.00
54308;BME280;40208;39.778;2.710;2023-02-23T04:52:26;101132.34;;;8.44;100.00
54308;BME280;40208;39.778;2.710;2023-02-23T04:55:18;101136.69;;;8.47;100.00
54308;BME280;40208;39.778;2.710;2023-02-23T04:58:03;101135.09;;;8.41;100.00
54308;BME280;40208;39.778;2.710;2023-02-23T05:00:48;101131.13;;;8.26;100.00
54308;BME280;40208;39.778;2.710;2023-02-23T05:03:33;101124.13;;;8.24;100.00
54308;BME280;40208;39.778;2.710;2023-02-23T05:06:17;101126.19;;;8.14;100.00
54308;BME280;40208;39.778;2.710;2023-02-23T05:09:02;101129.94;;;8.07;100.00
54308;BME280;40208;39.778;2.710;2023-02-23T05:11:49;101130.09;;;8.01;100.00
54308;BME280;40208;39.778;2.710;2023-02-23T05:14:34;101130.94;;;8.01;100.00
54308;BME280;40208;39.778;2.710;2023-02-23T05:17:19;101132.13;;;7.91;100.00
54308;BME280;40208;39.778;2.710;2023-02-23T05:20:04;101134.78;;;7.91;100.00
54308;BME280;40208;39.778;2.710;2023-02-23T05:22:48;101131.47;;;7.83;100.00
54308;BME280;40208;39.778;2.710;2023-02-23T05:25:33;101130.97;;;7.70;100.00
54308;BME280;40208;39.778;2.710;2023-02-23T05:28:18;101128.34;;;7.69;100.00
54308;BME280;40208;39.778;2.710;2023-02-23T05:31:03;101124.97;;;7.63;100.00
54308;BME280;40208;39.778;2.710;2023-02-23T05:33:49;101125.91;;;7.62;100.00
54308;BME280;40208;39.778;2.710;2023-02-23T05:36:34;101123.25;;;7.62;100.00
54308;BME280;40208;39.778;2.710;2023-02-23T05:39:20;101121.47;;;7.63;100.00
54308;BME280;40208;39.778;2.710;2023-02-23T05:42:05;101121.50;;;7.61;100.00
54308;BME280;40208;39.778;2.710;2023-02-23T05:44:50;101112.44;;;7.72;100.00
54308;BME280;40208;39.778;2.710;2023-02-23T05:47:34;101118.47;;;7.75;100.00
54308;BME280;40208;39.778;2.710;2023-02-23T05:50:22;101122.06;;;7.74;100.00
54308;BME280;40208;39.778;2.710;2023-02-23T05:53:06;101115.81;;;7.77;100.00
54308;BME280;40208;39.778;2.710;2023-02-23T05:55:51;101115.09;;;7.70;100.00
54308;BME280;40208;39.778;2.710;2023-02-23T05:58:36;101114.50;;;7.60;100.00
54308;BME280;40208;39.778;2.710;2023-02-23T06:01:21;101106.56;;;7.60;100.00
54308;BME280;40208;39.778;2.710;2023-02-23T06:04:06;101114.53;;;7.59;100.00
54308;BME280;40208;39.778;2.710;2023-02-23T06:06:51;101106.06;;;7.48;100.00
54308;BME280;40208;39.778;2.710;2023-02-23T06:09:36;101114.66;;;7.54;100.00
54308;BME280;40208;39.778;2.710;2023-02-23T06:12:21;101103.91;;;7.62;100.00
54308;BME280;40208;39.778;2.710;2023-02-23T06:15:07;101110.16;;;7.58;100.00
54308;BME280;40208;39.778;2.710;2023-02-23T06:17:51;101106.84;;;7.50;100.00
54308;BME280;40208;39.778;2.710;2023-02-23T06:20:37;101100.72;;;7.49;100.00
54308;BME280;40208;39.778;2.710;2023-02-23T06:23:21;101106.91;;;7.48;100.00
54308;BME280;40208;39.778;2.710;2023-02-23T06:26:06;101095.44;;;7.49;100.00
54308;BME280;40208;39.778;2.710;2023-02-23T06:28:51;101088.59;;;7.42;100.00
54308;BME280;40208;39.778;2.710;2023-02-23T06:31:36;101086.16;;;7.34;100.00
54308;BME280;40208;39.778;2.710;2023-02-23T06:34:21;101090.66;;;7.31;100.00
54308;BME280;40208;39.778;2.710;2023-02-23T06:37:06;101088.66;;;7.40;100.00
54308;BME280;40208;39.778;2.710;2023-02-23T06:39:50;101084.34;;;7.36;100.00
54308;BME280;40208;39.778;2.710;2023-02-23T06:42:35;101090.69;;;7.29;100.00
54308;BME280;40208;39.778;2.710;2023-02-23T06:45:20;101102.88;;;7.35;100.00
54308;BME280;40208;39.778;2.710;2023-02-23T06:48:05;101105.84;;;7.55;100.00
54308;BME280;40208;39.778;2.710;2023-02-23T06:50:51;101098.97;;;7.81;100.00
54308;BME280;40208;39.778;2.710;2023-02-23T06:53:36;101106.28;;;8.02;100.00
54308;BME280;40208;39.778;2.710;2023-02-23T06:56:21;101103.25;;;8.15;100.00
54308;BME280;40208;39.778;2.710;2023-02-23T06:59:06;101103.13;;;8.19;100.00
54308;BME280;40208;39.778;2.710;2023-02-23T07:01:52;101114.28;;;8.29;100.00
54308;BME280;40208;39.778;2.710;2023-02-23T07:04:37;101119.72;;;8.24;100.00
54308;BME280;40208;39.778;2.710;2023-02-23T07:07:22;101120.72;;;8.20;100.00
54308;BME280;40208;39.778;2.710;2023-02-23T07:10:07;101122.63;;;8.15;100.00
54308;BME280;40208;39.778;2.710;2023-02-23T07:12:52;101124.38;;;8.16;100.00
54308;BME280;40208;39.778;2.710;2023-02-23T07:15:38;101128.69;;;8.19;100.00
54308;BME280;40208;39.778;2.710;2023-02-23T07:18:23;101133.16;;;8.17;100.00
54308;BME280;40208;39.778;2.710;2023-02-23T07:21:09;101134.03;;;8.17;100.00
54308;BME280;40208;39.778;2.710;2023-02-23T07:23:54;101135.59;;;8.23;100.00
54308;BME280;40208;39.778;2.710;2023-02-23T07:26:41;101135.44;;;8.29;100.00
54308;BME280;40208;39.778;2.710;2023-02-23T07:29:30;101133.56;;;8.33;100.00
54308;BME280;40208;39.778;2.710;2023-02-23T07:32:15;101128.34;;;8.31;100.00
54308;BME280;40208;39.778;2.710;2023-02-23T07:34:59;101136.16;;;8.34;100.00
54308;BME280;40208;39.778;2.710;2023-02-23T07:37:44;101133.41;;;8.37;100.00
54308;BME280;40208;39.778;2.710;2023-02-23T07:40:29;101132.50;;;8.40;100.00
54308;BME280;40208;39.778;2.710;2023-02-23T07:43:14;101131.31;;;8.50;100.00
54308;BME280;40208;39.778;2.710;2023-02-23T07:45:59;101124.81;;;8.60;100.00
54308;BME280;40208;39.778;2.710;2023-02-23T07:48:44;101120.59;;;8.83;100.00
54308;BME280;40208;39.778;2.710;2023-02-23T07:51:31;101124.63;;;8.95;100.00
54308;BME280;40208;39.778;2.710;2023-02-23T07:54:17;101124.88;;;9.13;100.00
54308;BME280;40208;39.778;2.710;2023-02-23T07:57:02;101127.84;;;9.29;100.00
54308;BME280;40208;39.778;2.710;2023-02-23T07:59:47;101137.75;;;9.49;100.00
54308;BME280;40208;39.778;2.710;2023-02-23T08:02:32;101145.75;;;9.73;100.00
54308;BME280;40208;39.778;2.710;2023-02-23T08:05:17;101135.34;;;9.92;100.00
54308;BME280;40208;39.778;2.710;2023-02-23T08:08:01;101138.00;;;10.15;100.00
54308;BME280;40208;39.778;2.710;2023-02-23T08:10:46;101133.88;;;10.32;100.00
54308;BME280;40208;39.778;2.710;2023-02-23T08:13:32;101137.66;;;10.48;100.00
54308;BME280;40208;39.778;2.710;2023-02-23T08:16:17;101146.38;;;10.74;100.00
54308;BME280;40208;39.778;2.710;2023-02-23T08:19:02;101134.09;;;10.93;100.00
54308;BME280;40208;39.778;2.710;2023-02-23T08:21:47;101137.66;;;11.14;100.00
54308;BME280;40208;39.778;2.710;2023-02-23T08:24:33;101121.75;;;11.35;100.00
54308;BME280;40208;39.778;2.710;2023-02-23T08:27:18;101133.66;;;11.46;100.00
54308;BME280;40208;39.778;2.710;2023-02-23T08:30:03;101118.66;;;11.64;100.00
54308;BME280;40208;39.778;2.710;2023-02-23T08:32:48;101126.88;;;11.79;100.00
54308;BME280;40208;39.778;2.710;2023-02-23T08:35:34;101127.09;;;11.95;100.00
54308;BME280;40208;39.778;2.710;2023-02-23T08:38:18;101127.59;;;12.03;100.00
54308;BME280;40208;39.778;2.710;2023-02-23T08:41:03;101122.66;;;12.14;100.00
54308;BME280;40208;39.778;2.710;2023-02-23T08:43:48;101124.91;;;12.23;100.00
54308;BME280;40208;39.778;2.710;2023-02-23T08:46:32;101119.94;;;12.35;100.00
54308;BME280;40208;39.778;2.710;2023-02-23T08:49:17;101129.72;;;12.53;100.00
54308;BME280;40208;39.778;2.710;2023-02-23T08:52:02;101122.06;;;12.64;100.00
54308;BME280;40208;39.778;2.710;2023-02-23T08:54:47;101122.91;;;12.84;100.00
54308;BME280;40208;39.778;2.710;2023-02-23T08:57:35;101121.84;;;13.05;100.00
54308;BME280;40208;39.778;2.710;2023-02-23T09:00:20;101129.13;;;13.19;100.00
54308;BME280;40208;39.778;2.710;2023-02-23T09:03:05;101125.00;;;13.31;100.00
54308;BME280;40208;39.778;2.710;2023-02-23T09:05:50;101126.59;;;13.35;100.00
54308;BME280;40208;39.778;2.710;2023-02-23T09:08:35;101126.66;;;13.33;100.00
54308;BME280;40208;39.778;2.710;2023-02-23T09:11:20;101130.66;;;13.42;100.00
54308;BME280;40208;39.778;2.710;2023-02-23T09:14:05;101134.28;;;13.41;100.00
54308;BME280;40208;39.778;2.710;2023-02-23T09:16:50;101130.03;;;13.54;100.00
54308;BME280;40208;39.778;2.710;2023-02-23T09:19:35;101128.63;;;13.65;100.00
54308;BME280;40208;39.778;2.710;2023-02-23T09:22:20;101133.06;;;13.82;100.00
54308;BME280;40208;39.778;2.710;2023-02-23T09:25:05;101130.34;;;13.99;100.00
54308;BME280;40208;39.778;2.710;2023-02-23T09:27:51;101131.91;;;14.03;100.00
54308;BME280;40208;39.778;2.710;2023-02-23T09:30:36;101119.97;;;14.10;100.00
54308;BME280;40208;39.778;2.710;2023-02-23T09:33:21;101112.47;;;14.17;100.00
54308;BME280;40208;39.778;2.710;2023-02-23T09:36:07;101107.13;;;14.33;100.00
54308;BME280;40208;39.778;2.710;2023-02-23T09:38:53;101099.56;;;14.41;100.00
54308;BME280;40208;39.778;2.710;2023-02-23T09:47:44;101082.50;;;14.75;100.00
54308;BME280;40208;39.778;2.710;2023-02-23T09:50:32;101085.44;;;14.87;100.00
54308;BME280;40208;39.778;2.710;2023-02-23T09:53:26;101075.31;;;14.92;100.00
54308;BME280;40208;39.778;2.710;2023-02-23T09:56:19;101070.88;;;15.06;100.00
54308;BME280;40208;39.778;2.710;2023-02-23T09:59:10;101068.13;;;15.08;100.00
54308;BME280;40208;39.778;2.710;2023-02-23T10:01:57;101069.75;;;15.11;100.00
54308;BME280;40208;39.778;2.710;2023-02-23T10:04:48;101053.63;;;15.12;100.00
54308;BME280;40208;39.778;2.710;2023-02-23T10:07:50;101038.25;;;15.16;100.00
54308;BME280;40208;39.778;2.710;2023-02-23T10:10:43;101042.56;;;15.18;100.00
54308;BME280;40208;39.778;2.710;2023-02-23T10:19:24;101027.59;;;15.44;100.00
54308;BME280;40208;39.778;2.710;2023-02-23T10:22:12;101032.50;;;15.52;100.00
54308;BME280;40208;39.778;2.710;2023-02-23T10:25:01;101034.97;;;15.69;100.00
54308;BME280;40208;39.778;2.710;2023-02-23T10:27:47;101031.16;;;15.59;100.00
54308;BME280;40208;39.778;2.710;2023-02-23T10:30:32;101030.22;;;15.75;100.00
54308;BME280;40208;39.778;2.710;2023-02-23T10:36:15;101027.63;;;15.87;100.00
54308;BME280;40208;39.778;2.710;2023-02-23T10:39:02;101018.16;;;15.96;100.00
54308;BME280;40208;39.778;2.710;2023-02-23T10:41:48;101029.25;;;16.04;100.00
54308;BME280;40208;39.778;2.710;2023-02-23T10:44:33;101030.06;;;16.19;100.00
54308;BME280;40208;39.778;2.710;2023-02-23T10:47:19;101031.44;;;16.39;100.00
54308;BME280;40208;39.778;2.710;2023-02-23T10:50:05;101034.00;;;16.68;100.00
54308;BME280;40208;39.778;2.710;2023-02-23T10:52:51;101038.91;;;16.88;100.00
54308;BME280;40208;39.778;2.710;2023-02-23T10:55:38;101043.19;;;17.18;100.00
54308;BME280;40208;39.778;2.710;2023-02-23T10:58:23;101036.72;;;17.33;100.00
54308;BME280;40208;39.778;2.710;2023-02-23T11:01:08;101044.56;;;17.62;100.00
54308;BME280;40208;39.778;2.710;2023-02-23T11:03:53;101045.97;;;17.80;100.00
54308;BME280;40208;39.778;2.710;2023-02-23T11:06:38;101044.81;;;17.85;100.00
54308;BME280;40208;39.778;2.710;2023-02-23T11:09:30;101040.38;;;17.84;100.00
54308;BME280;40208;39.778;2.710;2023-02-23T11:12:28;101054.53;;;17.98;100.00
54308;BME280;40208;39.778;2.710;2023-02-23T11:15:29;101031.75;;;18.04;100.00
54308;BME280;40208;39.778;2.710;2023-02-23T11:18:18;101023.94;;;18.01;100.00
54308;BME280;40208;39.778;2.710;2023-02-23T11:21:12;101012.78;;;17.94;100.00
54308;BME280;40208;39.778;2.710;2023-02-23T11:24:03;101014.06;;;17.89;100.00
54308;BME280;40208;39.778;2.710;2023-02-23T11:26:54;101010.75;;;17.85;100.00
54308;BME280;40208;39.778;2.710;2023-02-23T11:29:42;100996.47;;;17.85;100.00
54308;BME280;40208;39.778;2.710;2023-02-23T11:32:31;100997.72;;;17.79;100.00
54308;BME280;40208;39.778;2.710;2023-02-23T11:38:14;100991.50;;;17.78;100.00
54308;BME280;40208;39.778;2.710;2023-02-23T11:41:03;100969.81;;;17.82;100.00
54308;BME280;40208;39.778;2.710;2023-02-23T11:43:49;100969.56;;;17.97;100.00
54308;BME280;40208;39.778;2.710;2023-02-23T11:46:35;100961.09;;;17.91;100.00
54308;BME280;40208;39.778;2.710;2023-02-23T11:49:31;100956.03;;;17.99;100.00
54308;BME280;40208;39.778;2.710;2023-02-23T11:52:19;100946.84;;;17.77;100.00
54308;BME280;40208;39.778;2.710;2023-02-23T11:55:06;100943.16;;;17.91;100.00
54308;BME280;40208;39.778;2.710;2023-02-23T11:57:50;100942.19;;;17.79;100.00
54308;BME280;40208;39.778;2.710;2023-02-23T12:00:36;100938.25;;;17.85;100.00
54308;BME280;40208;39.778;2.710;2023-02-23T12:03:22;100930.19;;;17.85;100.00
54308;BME280;40208;39.778;2.710;2023-02-23T12:06:09;100932.81;;;17.98;100.00
54308;BME280;40208;39.778;2.710;2023-02-23T12:08:54;100922.25;;;18.08;100.00
54308;BME280;40208;39.778;2.710;2023-02-23T12:11:43;100916.84;;;18.20;100.00
54308;BME280;40208;39.778;2.710;2023-02-23T12:14:35;100912.78;;;18.15;100.00
54308;BME280;40208;39.778;2.710;2023-02-23T12:17:39;100913.41;;;18.18;100.00
54308;BME280;40208;39.778;2.710;2023-02-23T12:20:28;100900.63;;;18.33;100.00
54308;BME280;40208;39.778;2.710;2023-02-23T12:23:19;100903.50;;;18.19;100.00
54308;BME280;40208;39.778;2.710;2023-02-23T12:26:13;100894.19;;;18.36;100.00
54308;BME280;40208;39.778;2.710;2023-02-23T12:29:09;100897.16;;;18.44;100.00
54308;BME280;40208;39.778;2.710;2023-02-23T12:31:58;100892.91;;;18.64;100.00
54308;BME280;40208;39.778;2.710;2023-02-23T12:40:31;100886.72;;;18.75;100.00
54308;BME280;40208;39.778;2.710;2023-02-23T12:43:28;100894.03;;;18.73;100.00
54308;BME280;40208;39.778;2.710;2023-02-23T12:46:24;100882.72;;;18.80;100.00
54308;BME280;40208;39.778;2.710;2023-02-23T12:52:18;100865.38;;;18.84;100.00
54308;BME280;40208;39.778;2.710;2023-02-23T12:55:10;100858.75;;;18.89;100.00
54308;BME280;40208;39.778;2.710;2023-02-23T12:57:57;100840.31;;;18.84;100.00
54308;BME280;40208;39.778;2.710;2023-02-23T13:00:50;100846.06;;;18.79;100.00
54308;BME280;40208;39.778;2.710;2023-02-23T13:03:44;100846.41;;;18.86;100.00
54308;BME280;40208;39.778;2.710;2023-02-23T13:09:41;100845.19;;;18.90;100.00
54308;BME280;40208;39.778;2.710;2023-02-23T13:15:21;100860.09;;;18.83;100.00
54308;BME280;40208;39.778;2.710;2023-02-23T13:32:19;100866.25;;;18.50;100.00
54308;BME280;40208;39.778;2.710;2023-02-23T13:35:05;100855.84;;;18.45;100.00
54308;BME280;40208;39.778;2.710;2023-02-23T13:37:51;100848.88;;;18.42;100.00
54308;BME280;40208;39.778;2.710;2023-02-23T13:46:23;100839.59;;;18.35;100.00
54308;BME280;40208;39.778;2.710;2023-02-23T13:52:27;100856.41;;;18.26;100.00
54308;BME280;40208;39.778;2.710;2023-02-23T13:58:16;100848.97;;;18.30;100.00
54308;BME280;40208;39.778;2.710;2023-02-23T14:01:13;100841.34;;;18.12;100.00
54308;BME280;40208;39.778;2.710;2023-02-23T14:03:59;100853.66;;;18.15;100.00
54308;BME280;40208;39.778;2.710;2023-02-23T14:09:55;100845.19;;;18.32;100.00
54308;BME280;40208;39.778;2.710;2023-02-23T14:12:42;100841.53;;;18.33;100.00
54308;BME280;40208;39.778;2.710;2023-02-23T14:15:46;100845.66;;;18.26;100.00
54308;BME280;40208;39.778;2.710;2023-02-23T14:21:50;100848.44;;;18.13;100.00
54308;BME280;40208;39.778;2.710;2023-02-23T14:24:40;100840.38;;;18.13;100.00
54308;BME280;40208;39.778;2.710;2023-02-23T14:27:40;100833.75;;;18.06;100.00
54308;BME280;40208;39.778;2.710;2023-02-23T14:30:27;100830.16;;;17.94;100.00
54308;BME280;40208;39.778;2.710;2023-02-23T14:36:34;100819.13;;;17.86;100.00
54308;BME280;40208;39.778;2.710;2023-02-23T14:39:23;100821.22;;;17.83;100.00
54308;BME280;40208;39.778;2.710;2023-02-23T14:42:13;100811.88;;;17.75;100.00
54308;BME280;40208;39.778;2.710;2023-02-23T14:45:03;100810.63;;;17.68;100.00
54308;BME280;40208;39.778;2.710;2023-02-23T14:47:48;100808.88;;;17.67;100.00
54308;BME280;40208;39.778;2.710;2023-02-23T14:50:34;100809.47;;;17.59;100.00
54308;BME280;40208;39.778;2.710;2023-02-23T14:53:22;100807.00;;;17.56;100.00
54308;BME280;40208;39.778;2.710;2023-02-23T14:56:17;100798.63;;;17.61;100.00
54308;BME280;40208;39.778;2.710;2023-02-23T14:59:02;100797.88;;;17.59;100.00
54308;BME280;40208;39.778;2.710;2023-02-23T15:01:50;100794.88;;;17.51;100.00
54308;BME280;40208;39.778;2.710;2023-02-23T15:04:35;100801.13;;;17.51;100.00
54308;BME280;40208;39.778;2.710;2023-02-23T15:13:09;100790.66;;;17.35;100.00
54308;BME280;40208;39.778;2.710;2023-02-23T15:15:59;100778.44;;;17.31;100.00
54308;BME280;40208;39.778;2.710;2023-02-23T15:18:45;100770.53;;;17.30;100.00
54308;BME280;40208;39.778;2.710;2023-02-23T15:21:31;100768.69;;;17.30;100.00
54308;BME280;40208;39.778;2.710;2023-02-23T15:24:15;100766.00;;;17.30;100.00
54308;BME280;40208;39.778;2.710;2023-02-23T15:27:02;100765.78;;;17.33;100.00
54308;BME280;40208;39.778;2.710;2023-02-23T15:29:48;100769.66;;;17.29;100.00
54308;BME280;40208;39.778;2.710;2023-02-23T15:32:36;100765.84;;;17.21;100.00
54308;BME280;40208;39.778;2.710;2023-02-23T15:35:20;100755.31;;;17.17;100.00
54308;BME280;40208;39.778;2.710;2023-02-23T15:38:05;100748.34;;;17.15;100.00
54308;BME280;40208;39.778;2.710;2023-02-23T15:40:53;100760.06;;;17.14;100.00
54308;BME280;40208;39.778;2.710;2023-02-23T15:43:38;100755.25;;;17.06;100.00
54308;BME280;40208;39.778;2.710;2023-02-23T15:46:24;100748.69;;;17.10;100.00
54308;BME280;40208;39.778;2.710;2023-02-23T15:49:10;100752.44;;;17.08;100.00
54308;BME280;40208;39.778;2.710;2023-02-23T15:51:59;100750.22;;;17.02;100.00
54308;BME280;40208;39.778;2.710;2023-02-23T15:54:53;100745.63;;;17.04;100.00
54308;BME280;40208;39.778;2.710;2023-02-23T15:57:54;100752.78;;;17.03;100.00
54308;BME280;40208;39.778;2.710;2023-02-23T16:00:40;100748.50;;;17.01;100.00
54308;BME280;40208;39.778;2.710;2023-02-23T16:03:29;100739.66;;;16.87;100.00
54308;BME280;40208;39.778;2.710;2023-02-23T16:11:49;100738.88;;;16.72;100.00
54308;BME280;40208;39.778;2.710;2023-02-23T16:14:48;100734.16;;;16.63;100.00
54308;BME280;40208;39.778;2.710;2023-02-23T16:17:42;100745.13;;;16.60;100.00
54308;BME280;40208;39.778;2.710;2023-02-23T16:20:33;100739.31;;;16.53;100.00
54308;BME280;40208;39.778;2.710;2023-02-23T16:23:40;100738.94;;;16.47;100.00
54308;BME280;40208;39.778;2.710;2023-02-23T16:26:33;100729.50;;;16.41;100.00
54308;BME280;40208;39.778;2.710;2023-02-23T16:29:23;100720.63;;;16.28;100.00